Time;durP1;ratioP1;P1;durP2;ratioP2;P2;SDS_P1;SDS_P2;PMS_P1;PMS_P2;Temp;Humidity;BMP_temperature;BMP_pressure;BME280_temperature;BME280_humidity;BME280_pressure;Samples;Min_cycle;Max_cycle;Signal;HPM_P1;HPM_P2
2022/09/22 00:02:06;;;;;;;2.58;1.60;;;;;;;12.02;55.61;99092.75;5120869;27;20046;-94
2022/09/22 00:04:32;;;;;;;2.83;1.60;;;;;;;11.90;55.41;99071.75;5119853;28;20028;-94
2022/09/22 00:06:58;;;;;;;2.15;1.52;;;;;;;12.04;55.67;99088.25;5120574;28;20412;-93
2022/09/22 00:09:23;;;;;;;3.75;1.52;;;;;;;11.97;55.70;99086.69;5118741;28;20063;-94
2022/09/22 00:11:50;;;;;;;2.40;1.60;;;;;;;12.01;55.91;99090.97;5116773;28;20054;-94
2022/09/22 00:14:20;;;;;;;2.83;1.83;;;;;;;12.04;55.63;99096.25;5118491;28;20493;-91
2022/09/22 00:16:49;;;;;;;2.65;1.50;;;;;;;12.10;55.37;99096.09;5120128;28;20063;-93
2022/09/22 00:19:17;;;;;;;2.40;1.42;;;;;;;11.91;55.74;99068.19;5104313;28;20036;-94
2022/09/22 00:21:51;;;;;;;2.70;1.58;;;;;;;11.99;56.23;99097.28;5129259;27;20078;-94
2022/09/22 00:24:21;;;;;;;3.15;1.58;;;;;;;11.87;56.42;99083.34;5141800;22;20049;-94
2022/09/22 00:26:47;;;;;;;6.88;2.00;;;;;;;11.79;56.96;99085.34;5051998;28;20041;-93
2022/09/22 00:29:15;;;;;;;3.75;2.20;;;;;;;11.67;57.13;99075.91;5043709;28;20042;-96
2022/09/22 00:31:44;;;;;;;2.97;2.10;;;;;;;11.56;57.55;99071.75;5041684;28;20132;-93
2022/09/22 00:34:14;;;;;;;3.92;1.88;;;;;;;11.49;57.63;99055.06;5050279;28;20043;-93
2022/09/22 00:36:40;;;;;;;4.13;1.95;;;;;;;11.55;57.49;99073.53;5043211;28;20033;-94
2022/09/22 00:39:06;;;;;;;2.95;2.17;;;;;;;11.52;57.55;99069.19;5049162;28;20034;-93
2022/09/22 00:41:36;;;;;;;4.70;1.80;;;;;;;11.49;57.87;99063.03;5052742;28;20058;-94
2022/09/22 00:44:30;;;;;;;2.70;1.92;;;;;;;11.77;57.54;99099.63;5049999;28;20085;-94
2022/09/22 00:47:04;;;;;;;3.67;1.77;;;;;;;11.67;57.74;99091.00;5061964;28;20033;-94
2022/09/22 00:49:36;;;;;;;2.50;1.90;;;;;;;11.54;58.00;99077.13;5050759;28;20026;-94
2022/09/22 00:52:04;;;;;;;2.13;1.70;;;;;;;11.63;57.48;99084.88;5048263;28;20103;-93
2022/09/22 00:54:30;;;;;;;2.25;1.70;;;;;;;11.47;57.70;99047.13;5055150;28;20093;-93
2022/09/22 00:57:04;;;;;;;3.75;1.90;;;;;;;11.68;57.75;99090.94;5057360;28;20044;-93
2022/09/22 00:59:30;;;;;;;2.90;1.60;;;;;;;11.69;57.69;99090.06;5044396;28;20041;-93
2022/09/22 01:01:56;;;;;;;3.88;1.77;;;;;;;11.74;57.25;99091.72;5052066;28;20075;-95
2022/09/22 01:04:23;;;;;;;3.72;1.80;;;;;;;11.44;57.63;99041.88;5051566;28;20037;-92
2022/09/22 01:06:50;;;;;;;2.42;1.70;;;;;;;11.53;57.79;99062.06;5052059;28;20049;-93
2022/09/22 01:09:16;;;;;;;2.97;2.00;;;;;;;11.47;57.65;99046.22;5049304;28;20052;-94
2022/09/22 01:11:42;;;;;;;3.80;1.80;;;;;;;11.49;57.72;99052.41;5046218;28;20072;-93
2022/09/22 01:14:19;;;;;;;5.32;1.90;;;;;;;11.47;57.91;99052.47;5044327;28;20088;-93
2022/09/22 01:16:54;;;;;;;2.20;1.67;;;;;;;11.64;57.85;99081.28;5063429;28;20059;-92
2022/09/22 01:19:45;;;;;;;3.17;1.80;;;;;;;11.41;57.67;99038.44;5055148;28;20101;-92
2022/09/22 01:22:29;;;;;;;2.42;1.70;;;;;;;11.54;57.53;99053.16;5047935;28;20079;-94
2022/09/22 01:25:17;;;;;;;2.53;1.92;;;;;;;11.43;57.61;99039.28;5061319;28;20083;-94
2022/09/22 01:28:10;;;;;;;2.65;1.85;;;;;;;11.79;56.96;99074.69;5055760;28;20036;-94
2022/09/22 01:30:43;;;;;;;3.08;1.60;;;;;;;11.68;57.26;99050.13;5044334;28;20045;-94
2022/09/22 01:33:28;;;;;;;4.47;1.90;;;;;;;11.60;57.13;99036.13;5056060;28;20140;-92
2022/09/22 01:36:07;;;;;;;2.25;1.60;;;;;;;11.62;56.45;99027.19;5053446;28;20045;-93
2022/09/22 01:38:44;;;;;;;6.03;2.20;;;;;;;11.60;56.62;99017.47;5024623;28;20062;-92
2022/09/22 01:41:19;;;;;;;2.33;1.67;;;;;;;11.78;56.73;99053.44;5062500;28;20402;-92
2022/09/22 01:43:51;;;;;;;2.33;1.80;;;;;;;11.77;57.13;99059.66;5057934;28;20124;-93
2022/09/22 01:46:24;;;;;;;1.77;1.60;;;;;;;11.66;57.61;99055.47;5050993;28;20045;-93
2022/09/22 01:48:52;;;;;;;2.65;1.58;;;;;;;11.58;57.87;99051.28;5043847;28;20046;-92
2022/09/22 01:51:24;;;;;;;2.83;1.58;;;;;;;11.45;58.09;99038.31;5051558;28;20037;-94
2022/09/22 01:53:55;;;;;;;1.67;1.58;;;;;;;11.51;58.42;99047.91;5054527;28;20060;-93
2022/09/22 01:56:23;;;;;;;3.35;1.80;;;;;;;11.38;58.48;99035.84;5046551;28;20045;-91
2022/09/22 01:58:53;;;;;;;2.47;1.75;;;;;;;11.24;58.52;99020.22;5050040;28;20049;-91
2022/09/22 02:01:25;;;;;;;3.78;2.00;;;;;;;11.32;58.56;99034.22;5052121;28;20037;-92
2022/09/22 02:03:56;;;;;;;2.40;1.77;;;;;;;11.20;58.52;99015.91;5043062;28;20049;-93
2022/09/22 02:06:28;;;;;;;3.45;1.95;;;;;;;11.27;58.15;99022.78;5044745;28;20045;-93
2022/09/22 02:08:59;;;;;;;3.25;1.83;;;;;;;11.38;57.72;99022.50;5045111;28;20051;-93
2022/09/22 02:11:25;;;;;;;4.15;1.98;;;;;;;11.27;58.15;99013.00;5045492;28;20057;-93
2022/09/22 02:13:51;;;;;;;3.20;1.80;;;;;;;11.54;57.98;99053.16;5063666;28;20088;-94
2022/09/22 02:16:21;;;;;;;2.20;1.52;;;;;;;11.29;58.17;99010.31;5048359;28;20040;-94
2022/09/22 02:18:50;;;;;;;2.63;1.60;;;;;;;11.24;58.58;99026.41;5051630;28;20036;-91
2022/09/22 02:21:17;;;;;;;3.97;1.85;;;;;;;11.27;57.98;99018.34;5048163;28;20041;-92
2022/09/22 02:23:45;;;;;;;2.67;1.95;;;;;;;11.49;58.22;99060.38;5050526;28;20053;-93
2022/09/22 02:26:22;;;;;;;2.42;1.70;;;;;;;11.46;58.05;99055.16;5056429;28;20415;-93
2022/09/22 02:28:51;;;;;;;2.55;1.60;;;;;;;11.44;58.17;99051.66;5055857;28;20080;-94
2022/09/22 02:31:18;;;;;;;;;;;;;;;11.47;58.39;99056.88;5053177;28;20069;-93
2022/09/22 02:33:45;;;;;;;2.28;1.70;;;;;;;11.40;58.54;99052.66;5055439;28;19924;-93
2022/09/22 02:36:23;;;;;;;2.55;1.70;;;;;;;11.44;58.31;99044.53;5050580;28;20047;-93
2022/09/22 02:39:00;;;;;;;3.30;1.80;;;;;;;11.22;58.05;98993.63;5057047;28;20045;-93
2022/09/22 02:41:32;;;;;;;4.30;1.70;;;;;;;11.25;58.28;98998.88;5047313;28;20042;-93
2022/09/22 02:44:05;;;;;;;2.58;1.67;;;;;;;11.25;58.21;98998.88;5047696;28;20049;-93
2022/09/22 02:46:39;;;;;;;2.13;1.70;;;;;;;11.33;57.72;99001.34;5049700;28;20109;-93
2022/09/22 02:49:12;;;;;;;2.60;1.80;;;;;;;11.38;57.78;99011.88;5049552;28;20045;-93
2022/09/22 02:51:38;;;;;;;2.78;1.70;;;;;;;11.53;57.46;99024.78;5024476;28;20042;-93
2022/09/22 02:54:05;;;;;;;5.00;1.80;;;;;;;11.39;57.73;99011.84;5037534;28;20046;-94
2022/09/22 02:56:31;;;;;;;2.90;1.70;;;;;;;11.54;57.70;99037.19;5149729;22;20052;-93
2022/09/22 02:58:57;;;;;;;2.35;1.73;;;;;;;11.37;57.60;99003.00;5063292;28;20394;-95
2022/09/22 03:01:24;;;;;;;4.38;1.80;;;;;;;11.29;57.48;98995.22;5063981;28;20448;-95
2022/09/22 03:03:50;;;;;;;2.60;1.80;;;;;;;11.47;57.98;99024.94;5062254;28;20120;-94
2022/09/22 03:06:18;;;;;;;3.50;1.98;;;;;;;11.34;57.46;98989.75;5062832;28;20061;-94
2022/09/22 03:08:44;;;;;;;2.40;1.70;;;;;;;11.42;57.28;98994.91;5064507;28;20063;-93
2022/09/22 03:11:10;;;;;;;2.05;1.60;;;;;;;11.47;57.37;99003.63;5060128;28;20044;-94
2022/09/22 03:13:42;;;;;;;3.10;1.60;;;;;;;11.63;57.05;99020.09;5067950;28;20033;-94
2022/09/22 03:16:08;;;;;;;1.70;1.50;;;;;;;11.59;57.22;99021.09;5059696;28;20041;-94
2022/09/22 03:18:34;;;;;;;2.30;1.60;;;;;;;11.39;57.23;98995.84;5061100;28;20099;-95
2022/09/22 03:21:00;;;;;;;3.45;1.83;;;;;;;11.70;57.15;99037.63;5062210;28;20041;-95
2022/09/22 03:23:28;;;;;;;2.92;1.88;;;;;;;11.45;57.06;98995.69;5064010;28;20072;-95
2022/09/22 03:25:54;;;;;;;2.03;1.60;;;;;;;11.66;56.95;99031.50;5063279;28;20072;-95
2022/09/22 03:28:20;;;;;;;4.05;1.80;;;;;;;11.52;56.81;99013.25;5062900;28;20055;-94
2022/09/22 03:30:46;;;;;;;2.58;1.63;;;;;;;11.62;56.91;99024.50;5063147;28;20049;-94
2022/09/22 03:33:12;;;;;;;2.88;1.70;;;;;;;11.52;57.35;99013.25;5063455;28;20524;-94
2022/09/22 03:35:38;;;;;;;2.03;1.65;;;;;;;11.60;57.14;99029.03;5062179;28;20049;-96
2022/09/22 03:38:04;;;;;;;3.25;1.70;;;;;;;11.50;56.79;98999.09;5062956;28;20056;-94
2022/09/22 03:40:32;;;;;;;2.05;1.60;;;;;;;11.50;56.96;98996.44;5062570;28;20428;-96
2022/09/22 03:42:59;;;;;;;2.70;1.73;;;;;;;11.53;56.83;99003.47;5064530;28;20040;-96
2022/09/22 03:45:26;;;;;;;2.67;1.80;;;;;;;11.42;57.04;98985.13;5061327;28;20037;-95
2022/09/22 03:47:53;;;;;;;2.97;1.80;;;;;;;11.48;57.00;98992.94;5060615;28;20041;-94
2022/09/22 03:50:19;;;;;;;2.53;1.85;;;;;;;11.43;57.27;98999.31;5059792;28;20049;-94
2022/09/22 03:52:45;;;;;;;2.63;1.73;;;;;;;11.34;57.87;98994.22;5061261;28;20045;-93
2022/09/22 03:55:12;;;;;;;3.08;1.63;;;;;;;11.44;57.61;99022.34;5060563;28;20040;-93
2022/09/22 03:57:42;;;;;;;2.35;1.60;;;;;;;11.54;57.22;99023.88;5061360;28;20049;-92
2022/09/22 04:00:09;;;;;;;2.17;1.65;;;;;;;11.55;57.35;99030.06;5063140;28;20043;-93
2022/09/22 04:02:35;;;;;;;2.92;1.70;;;;;;;11.60;57.26;99041.47;5062209;28;20048;-93
2022/09/22 04:05:01;;;;;;;2.53;1.80;;;;;;;11.56;57.39;99039.78;5062364;28;20076;-94
2022/09/22 04:07:27;;;;;;;2.10;1.60;;;;;;;11.34;57.36;99004.88;5061589;28;20048;-93
2022/09/22 04:09:53;;;;;;;3.28;2.05;;;;;;;11.30;57.57;98991.66;5063288;28;20043;-93
2022/09/22 04:12:19;;;;;;;3.03;1.70;;;;;;;11.41;57.86;99019.78;5061918;28;20397;-93
2022/09/22 04:14:47;;;;;;;2.53;1.70;;;;;;;11.32;57.18;98988.97;5063141;28;20033;-93
2022/09/22 04:17:14;;;;;;;2.35;1.65;;;;;;;11.49;57.65;99034.66;5060889;28;20049;-92
2022/09/22 04:19:43;;;;;;;1.90;1.70;;;;;;;11.34;57.54;99005.75;5059898;28;20053;-93
2022/09/22 04:22:08;;;;;;;;;;;;;;;11.50;57.37;99039.06;5065224;28;20123;-95
2022/09/22 04:24:35;;;;;;;2.55;1.70;;;;;;;11.17;57.89;98984.91;5065987;28;19960;-94
2022/09/22 04:27:01;;;;;;;1.92;1.60;;;;;;;11.25;57.50;99001.53;5064695;28;20041;-94
2022/09/22 04:29:27;;;;;;;2.13;1.70;;;;;;;11.19;57.72;98993.72;5062952;28;20131;-94
2022/09/22 04:31:57;;;;;;;3.08;1.73;;;;;;;11.17;57.77;98994.66;5062526;28;20102;-94
2022/09/22 04:34:23;;;;;;;3.50;1.88;;;;;;;11.30;57.53;99012.94;5064795;28;20504;-94
2022/09/22 04:36:49;;;;;;;2.90;1.73;;;;;;;11.29;57.16;98987.22;5065636;28;20099;-94
2022/09/22 04:39:15;;;;;;;2.80;1.80;;;;;;;11.39;57.40;99022.50;5064117;28;20041;-93
2022/09/22 04:41:41;;;;;;;2.63;1.60;;;;;;;11.37;56.93;98996.81;5066727;28;20083;-93
2022/09/22 04:44:07;;;;;;;2.03;1.52;;;;;;;11.54;57.31;99030.97;5063495;28;20056;-94
2022/09/22 04:46:33;;;;;;;2.97;1.70;;;;;;;11.49;57.28;99028.44;5064652;28;20036;-95
2022/09/22 04:49:00;;;;;;;2.13;1.75;;;;;;;11.45;57.24;99034.75;5063459;28;20068;-92
2022/09/22 04:51:26;;;;;;;2.30;1.58;;;;;;;11.62;57.10;99048.50;5065392;28;20033;-93
2022/09/22 04:53:52;;;;;;;4.90;1.85;;;;;;;11.33;57.19;99004.00;5063144;28;20227;-95
2022/09/22 04:56:18;;;;;;;2.92;1.80;;;;;;;11.64;56.86;99044.00;5067398;28;20095;-95
2022/09/22 04:58:44;;;;;;;2.17;1.63;;;;;;;11.56;56.57;99024.72;5063279;28;20128;-94
2022/09/22 05:01:10;;;;;;;2.13;1.67;;;;;;;11.61;56.46;99032.56;5063915;28;20115;-94
2022/09/22 05:03:37;;;;;;;2.30;1.60;;;;;;;11.63;56.60;99036.06;5066776;28;20056;-94
2022/09/22 05:06:06;;;;;;;2.72;1.73;;;;;;;11.61;56.75;99048.56;5053867;28;20045;-94
2022/09/22 05:08:32;;;;;;;3.60;1.67;;;;;;;11.49;56.45;99012.44;5049730;28;20041;-94
2022/09/22 05:10:58;;;;;;;2.72;1.73;;;;;;;11.70;56.28;99048.28;5063232;28;20047;-95
2022/09/22 05:13:24;;;;;;;3.28;1.75;;;;;;;11.72;56.46;99049.13;5062525;28;20461;-94
2022/09/22 05:15:50;;;;;;;2.67;1.80;;;;;;;11.54;56.13;99021.22;5063482;28;20064;-95
2022/09/22 05:18:16;;;;;;;3.72;1.70;;;;;;;11.56;56.20;99013.16;5063652;28;20045;-93
2022/09/22 05:20:42;;;;;;;2.53;1.58;;;;;;;11.77;56.49;99054.31;5061979;28;20114;-94
2022/09/22 05:23:12;;;;;;;2.10;1.60;;;;;;;11.69;56.79;99047.44;5061986;28;20037;-92
2022/09/22 05:25:38;;;;;;;5.18;1.88;;;;;;;11.47;57.08;99020.50;5060500;28;20041;-92
2022/09/22 05:28:03;;;;;;;3.55;1.77;;;;;;;11.67;56.78;99053.72;5062103;28;20075;-93
2022/09/22 05:30:29;;;;;;;3.65;1.70;;;;;;;11.64;57.88;99048.47;5061152;28;20047;-94
2022/09/22 05:32:55;;;;;;;1.92;1.58;;;;;;;11.55;57.54;99044.25;5059119;28;20037;-94
2022/09/22 05:35:23;;;;;;;3.13;1.88;;;;;;;11.58;57.52;99037.97;5061350;28;20379;-94
2022/09/22 05:37:50;;;;;;;2.03;1.75;;;;;;;11.62;59.10;99053.81;5059413;28;20514;-93
2022/09/22 05:40:18;;;;;;;2.25;1.60;;;;;;;11.38;58.29;99025.19;5059265;28;20040;-91
2022/09/22 05:42:45;;;;;;;2.67;1.88;;;;;;;11.60;58.46;99049.44;5058523;28;20053;-94
2022/09/22 05:45:12;;;;;;;4.20;1.92;;;;;;;11.62;59.03;99064.47;5058756;28;20044;-92
2022/09/22 05:47:39;;;;;;;4.40;1.88;;;;;;;11.66;59.96;99067.94;5059153;28;20044;-94
2022/09/22 05:50:06;;;;;;;4.53;1.80;;;;;;;11.62;60.84;99066.25;5059105;28;20491;-94
2022/09/22 05:52:32;;;;;;;2.55;1.90;;;;;;;11.52;60.05;99047.88;5058953;28;20052;-93
2022/09/22 05:54:58;;;;;;;3.45;1.90;;;;;;;11.76;58.54;99055.25;5058977;28;20036;-94
2022/09/22 05:57:26;;;;;;;3.22;1.95;;;;;;;11.97;57.30;99059.13;5059406;28;20053;-94
2022/09/22 05:59:52;;;;;;;2.85;1.98;;;;;;;12.07;57.49;99058.81;5057504;28;20406;-93
2022/09/22 06:02:18;;;;;;;4.53;1.80;;;;;;;12.13;56.83;99044.47;5062679;28;20087;-94
2022/09/22 06:04:45;;;;;;;6.72;2.00;;;;;;;12.31;56.68;99057.25;5060593;28;20041;-93
2022/09/22 06:07:11;;;;;;;2.35;1.60;;;;;;;12.32;56.25;99042.13;5060106;28;20044;-93
2022/09/22 06:09:37;;;;;;;4.85;1.80;;;;;;;12.59;56.04;99071.56;5059375;28;20045;-93
2022/09/22 06:12:03;;;;;;;3.83;1.80;;;;;;;12.66;55.59;99075.78;5060017;28;20059;-95
2022/09/22 06:14:30;;;;;;;2.70;1.80;;;;;;;12.65;56.26;99056.22;5058655;28;20040;-93
2022/09/22 06:16:57;;;;;;;2.30;1.80;;;;;;;12.69;56.12;99049.88;5057649;28;20068;-91
2022/09/22 06:19:22;;;;;;;3.03;1.90;;;;;;;12.88;56.48;99074.22;5057900;28;20041;-93
2022/09/22 06:21:49;;;;;;;2.85;1.88;;;;;;;12.84;56.82;99072.56;5058845;28;20037;-94
2022/09/22 06:24:15;;;;;;;2.55;1.90;;;;;;;12.77;56.69;99046.97;5058384;28;20076;-93
2022/09/22 06:26:41;;;;;;;2.70;1.77;;;;;;;12.93;57.06;99064.25;5058223;28;20088;-95
2022/09/22 06:29:08;;;;;;;2.95;1.80;;;;;;;13.04;56.39;99069.25;5058142;28;20616;-92
2022/09/22 06:31:35;;;;;;;2.45;1.83;;;;;;;12.81;56.25;99029.94;5046119;28;20057;-92
2022/09/22 06:34:01;;;;;;;3.78;2.00;;;;;;;12.91;55.51;99034.06;5058669;28;20434;-93
2022/09/22 06:36:30;;;;;;;3.85;2.30;;;;;;;13.26;55.10;99063.19;5059156;28;20041;-93
2022/09/22 06:38:57;;;;;;;;;;;;;;;13.30;54.94;99079.09;5059628;28;20552;-92
2022/09/22 06:41:24;;;;;;;3.53;2.20;;;;;;;13.25;55.61;99061.44;5060883;28;19924;-94
2022/09/22 06:43:51;;;;;;;4.75;2.10;;;;;;;13.32;55.17;99047.88;5057586;28;20120;-93
2022/09/22 06:46:18;;;;;;;4.47;2.00;;;;;;;13.46;54.90;99070.56;5058956;28;20045;-94
2022/09/22 06:48:49;;;;;;;3.00;2.25;;;;;;;13.55;54.49;99063.13;5059165;28;20060;-93
2022/09/22 06:51:16;;;;;;;3.03;1.75;;;;;;;13.67;53.98;99045.78;5058035;28;20473;-92
2022/09/22 06:53:43;;;;;;;2.95;1.83;;;;;;;13.73;53.50;99042.91;5057523;28;20063;-93
2022/09/22 06:56:08;;;;;;;4.72;2.00;;;;;;;14.01;53.46;99052.59;5057585;28;20048;-92
2022/09/22 06:58:34;;;;;;;2.92;1.90;;;;;;;14.04;53.53;99065.84;5058336;28;20032;-92
2022/09/22 07:01:05;;;;;;;2.63;1.95;;;;;;;13.94;52.09;99043.03;5059896;28;20041;-92
2022/09/22 07:03:32;;;;;;;4.53;2.05;;;;;;;14.21;52.20;99051.00;5057834;28;20070;-90
2022/09/22 07:06:00;;;;;;;3.75;2.03;;;;;;;14.37;52.67;99063.72;5057406;28;20386;-92
2022/09/22 07:08:28;;;;;;;2.55;1.63;;;;;;;14.65;51.40;99060.00;5055210;28;20040;-92
2022/09/22 07:10:56;;;;;;;3.85;2.53;;;;;;;14.79;51.23;99064.84;5053239;28;20045;-93
2022/09/22 07:13:22;;;;;;;4.05;2.10;;;;;;;14.79;50.65;99048.78;5056312;28;20512;-93
2022/09/22 07:15:48;;;;;;;3.65;1.85;;;;;;;14.95;51.14;99060.59;5058529;28;20056;-92
2022/09/22 07:18:14;;;;;;;3.47;1.70;;;;;;;14.92;50.38;99079.50;5057301;28;20033;-92
2022/09/22 07:20:40;;;;;;;6.13;2.20;;;;;;;14.83;50.29;99060.22;5058512;28;20037;-93
2022/09/22 07:23:17;;;;;;;3.22;1.90;;;;;;;14.88;50.70;99055.56;5058647;28;20063;-92
2022/09/22 07:25:49;;;;;;;3.40;1.90;;;;;;;14.92;49.90;99043.78;5058266;28;20397;-94
2022/09/22 07:28:15;;;;;;;3.53;1.80;;;;;;;15.08;49.80;99036.88;5056798;28;20044;-95
2022/09/22 07:30:41;;;;;;;3.00;2.10;;;;;;;15.19;49.26;99056.06;5053333;28;20052;-91
2022/09/22 07:33:07;;;;;;;5.32;1.90;;;;;;;15.46;48.75;99073.72;5056170;28;20390;-90
2022/09/22 07:35:35;;;;;;;3.85;2.00;;;;;;;15.55;49.11;99063.50;5056794;28;20053;-92
2022/09/22 07:38:02;;;;;;;3.70;2.10;;;;;;;15.52;47.57;99063.63;5056609;28;20100;-96
2022/09/22 07:40:29;;;;;;;2.65;1.80;;;;;;;15.46;48.25;99058.53;5057098;28;20017;-91
2022/09/22 07:42:55;;;;;;;2.95;1.80;;;;;;;15.56;49.10;99059.88;5055324;28;20037;-91
2022/09/22 07:45:22;;;;;;;4.53;2.03;;;;;;;15.61;48.49;99051.63;5054791;28;20048;-95
2022/09/22 07:50:54;;;;;;;4.00;1.98;;;;;;;15.71;48.48;99027.97;5074217;27;20809;-96
2022/09/22 07:53:19;;;;;;;2.90;1.92;;;;;;;15.84;50.11;99050.66;5071625;28;20047;-92
2022/09/22 07:55:46;;;;;;;4.25;2.05;;;;;;;15.77;47.93;99027.75;5073074;28;20040;-93
2022/09/22 07:58:12;;;;;;;3.13;1.92;;;;;;;15.62;49.42;99037.28;5069345;28;20044;-94
2022/09/22 08:00:38;;;;;;;3.28;2.00;;;;;;;15.99;49.32;99071.44;5070587;28;20099;-91
2022/09/22 08:03:04;;;;;;;4.25;2.00;;;;;;;15.98;47.84;99052.72;5071220;28;20465;-92
2022/09/22 08:05:30;;;;;;;4.80;1.95;;;;;;;16.10;47.84;99064.72;5070442;28;20049;-92
2022/09/22 08:08:02;;;;;;;4.53;2.05;;;;;;;15.84;47.74;99033.72;5071962;28;20136;-91
2022/09/22 08:10:28;;;;;;;1.73;1.55;;;;;;;16.12;47.91;99066.41;5069923;28;20067;-91
2022/09/22 08:12:56;;;;;;;3.80;1.95;;;;;;;16.02;47.78;99084.69;5073070;28;20114;-91
2022/09/22 08:15:22;;;;;;;4.07;2.00;;;;;;;16.45;47.42;99089.09;5071729;28;20051;-92
2022/09/22 08:17:49;;;;;;;3.30;2.03;;;;;;;16.53;47.48;99070.81;5072576;28;20647;-91
2022/09/22 08:20:15;;;;;;;2.75;1.80;;;;;;;16.16;48.23;99059.97;5074778;28;20041;-92
2022/09/22 08:22:42;;;;;;;3.28;2.10;;;;;;;16.62;47.53;99062.34;5072337;28;20017;-92
2022/09/22 08:25:11;;;;;;;3.83;2.30;;;;;;;16.92;45.93;99070.78;5073938;28;20029;-93
2022/09/22 08:27:38;;;;;;;5.45;2.13;;;;;;;16.99;45.89;99061.47;5070113;28;20048;-91
2022/09/22 08:30:06;;;;;;;5.13;2.10;;;;;;;16.96;46.96;99056.25;5070102;28;20108;-91
2022/09/22 08:32:34;;;;;;;5.93;2.20;;;;;;;17.34;47.96;99066.06;5066993;28;20030;-92
2022/09/22 08:35:02;;;;;;;3.53;2.08;;;;;;;17.41;45.93;99067.47;5072496;28;20040;-92
2022/09/22 08:37:28;;;;;;;4.93;2.60;;;;;;;17.38;45.89;99065.81;5072000;28;20037;-92
2022/09/22 08:39:55;;;;;;;4.35;2.47;;;;;;;17.16;44.08;99057.97;5072247;28;20036;-92
2022/09/22 08:42:22;;;;;;;2.88;2.20;;;;;;;17.29;44.46;99068.97;5071250;28;20040;-91
2022/09/22 08:44:57;;;;;;;3.22;2.20;;;;;;;17.44;45.10;99061.97;5068963;28;20100;-90
2022/09/22 08:53:43;;;;;;;2.15;1.60;;;;;;;17.93;41.78;99050.50;5093067;27;20354;-94
2022/09/22 08:56:16;;;;;;;2.17;1.58;;;;;;;18.25;40.90;99052.34;5093001;28;20409;-93
2022/09/22 08:58:49;;;;;;;3.90;1.75;;;;;;;18.38;40.36;99033.72;5094175;28;20119;-91
2022/09/22 09:01:32;;;;;;;4.05;1.77;;;;;;;18.48;39.85;99044.88;5092747;28;20036;-93
2022/09/22 09:04:10;;;;;;;2.88;1.80;;;;;;;18.54;40.43;99025.69;5085080;28;20044;-92
2022/09/22 09:06:50;;;;;;;3.75;1.60;;;;;;;18.66;40.09;99035.75;5091577;28;20093;-92
2022/09/22 09:09:42;;;;;;;1.90;1.60;;;;;;;18.35;40.34;99041.09;5093332;28;20040;-93
2022/09/22 09:12:28;;;;;;;2.38;1.83;;;;;;;17.99;40.04;99016.06;5093131;28;20044;-94
2022/09/22 09:15:26;;;;;;;4.25;2.85;;;;;;;18.58;40.93;99040.69;5088360;28;20036;-92
2022/09/22 09:17:55;;;;;;;4.43;1.70;;;;;;;18.82;38.99;99043.91;5091893;28;20486;-94
2022/09/22 09:20:30;;;;;;;2.55;1.90;;;;;;;18.94;39.13;99023.44;5093946;28;20109;-93
2022/09/22 09:22:59;;;;;;;3.42;1.70;;;;;;;19.09;39.02;99025.25;5095188;28;20051;-92
2022/09/22 09:25:33;;;;;;;2.97;2.40;;;;;;;19.00;36.66;99003.38;5093785;28;20048;-95
2022/09/22 09:28:03;;;;;;;5.22;3.40;;;;;;;18.64;37.01;99032.28;5092333;28;20041;-94
2022/09/22 09:30:35;;;;;;;3.67;2.25;;;;;;;19.04;37.99;99042.63;5096058;28;20119;-93
2022/09/22 09:33:09;;;;;;;3.63;1.70;;;;;;;18.94;36.98;99014.50;5095073;28;20032;-95
2022/09/22 09:35:42;;;;;;;3.20;1.80;;;;;;;19.23;38.74;99034.38;5093007;28;20044;-94
2022/09/22 09:38:12;;;;;;;2.20;1.60;;;;;;;19.18;38.38;99023.00;5091815;28;20044;-92
2022/09/22 09:40:40;;;;;;;2.72;1.85;;;;;;;19.13;37.38;99022.38;5092500;28;20447;-94
2022/09/22 09:43:07;;;;;;;2.80;1.95;;;;;;;19.12;36.99;99029.59;5091751;28;20028;-94
2022/09/22 09:45:41;;;;;;;2.22;1.55;;;;;;;19.11;37.31;99010.84;5095761;28;20400;-93
2022/09/22 09:48:19;;;;;;;2.83;2.00;;;;;;;19.30;36.69;99006.09;5092042;28;20487;-93
2022/09/22 09:50:45;;;;;;;2.30;1.40;;;;;;;19.41;35.82;99002.75;5093879;28;20036;-94
2022/09/22 09:53:27;;;;;;;3.38;1.63;;;;;;;19.58;36.02;99021.50;5093264;28;20505;-93
2022/09/22 09:55:55;;;;;;;2.47;1.55;;;;;;;19.19;35.49;99014.81;5095214;28;20044;-91
2022/09/22 10:01:21;;;;;;;2.83;1.65;;;;;;;19.44;35.18;99011.53;5135619;27;20728;-93
2022/09/22 10:03:53;;;;;;;1.75;1.50;;;;;;;19.25;34.66;99013.56;5137101;27;20066;-93
2022/09/22 10:06:24;;;;;;;3.67;1.60;;;;;;;19.37;35.19;99003.91;5130270;28;20489;-93
2022/09/22 10:08:50;;;;;;;3.10;1.83;;;;;;;18.87;36.08;99004.06;5134479;28;20036;-94
2022/09/22 10:11:27;;;;;;;3.38;2.10;;;;;;;18.98;36.59;98995.38;5135897;27;20082;-94
2022/09/22 10:13:55;;;;;;;3.05;2.00;;;;;;;19.05;37.13;99002.13;5134821;28;20130;-94
2022/09/22 10:16:27;;;;;;;2.83;1.70;;;;;;;19.02;36.43;98990.69;5137434;27;20044;-95
2022/09/22 10:19:19;;;;;;;3.35;1.70;;;;;;;18.93;37.30;99002.81;5135278;28;20031;-93
2022/09/22 10:21:45;;;;;;;3.45;2.13;;;;;;;19.14;36.54;99010.66;5138502;28;20039;-94
2022/09/22 10:24:26;;;;;;;2.42;1.98;;;;;;;19.12;36.04;99001.78;5139376;28;20130;-93
2022/09/22 10:26:56;;;;;;;3.55;2.40;;;;;;;19.13;35.76;98987.31;5135689;27;20546;-93
2022/09/22 10:29:24;;;;;;;2.30;1.73;;;;;;;19.21;35.34;98979.66;5135438;27;20068;-92
2022/09/22 10:32:04;;;;;;;3.28;2.00;;;;;;;19.11;35.54;98973.97;5137156;28;20031;-95
2022/09/22 10:34:32;;;;;;;2.95;2.03;;;;;;;19.24;35.55;99001.06;5136757;28;20130;-94
2022/09/22 10:36:59;;;;;;;2.35;1.75;;;;;;;19.14;36.24;98997.16;5132343;28;20051;-92
2022/09/22 10:39:34;;;;;;;2.38;1.70;;;;;;;18.65;37.22;98974.75;5134019;27;20107;-95
2022/09/22 10:42:06;;;;;;;3.75;1.80;;;;;;;19.01;38.12;98972.75;5126251;28;20039;-93
2022/09/22 10:44:32;;;;;;;2.22;1.55;;;;;;;19.02;36.08;98975.38;5134944;28;20047;-95
2022/09/22 10:47:31;;;;;;;2.90;2.03;;;;;;;19.25;36.78;98986.63;5134898;28;20127;-93
2022/09/22 10:50:34;;;;;;;3.22;1.50;;;;;;;18.76;35.85;99001.09;5134953;27;20100;-94
2022/09/22 10:53:20;;;;;;;2.70;1.40;;;;;;;18.91;37.63;98985.91;5134532;27;20032;-92
2022/09/22 10:55:55;;;;;;;2.92;1.58;;;;;;;18.62;37.16;98971.38;5142886;27;20042;-96
2022/09/22 10:58:43;;;;;;;2.42;1.60;;;;;;;18.86;38.19;98993.38;5133688;28;20052;-95
2022/09/22 11:01:25;;;;;;;2.47;1.70;;;;;;;18.44;37.64;98957.13;5133714;28;20043;-94
2022/09/22 11:04:05;;;;;;;2.25;1.40;;;;;;;18.76;37.04;98965.19;5135216;27;20111;-93
2022/09/22 11:13:08;;;;;;;2.80;1.70;;;;;;;18.62;36.34;98961.44;5105261;27;20372;-91
2022/09/22 11:15:53;;;;;;;1.88;1.50;;;;;;;18.79;37.38;98974.00;5064321;28;20045;-93
2022/09/22 11:18:34;;;;;;;2.63;1.50;;;;;;;18.70;37.15;98941.31;5054711;28;20040;-93
2022/09/22 11:21:12;;;;;;;1.50;1.40;;;;;;;18.66;37.74;98957.63;5055706;28;20048;-94
2022/09/22 11:23:57;;;;;;;2.20;1.60;;;;;;;18.70;37.97;98962.88;5059120;28;20045;-92
2022/09/22 11:26:43;;;;;;;3.10;1.60;;;;;;;18.67;37.34;98955.78;5054839;28;20036;-93
2022/09/22 11:29:29;;;;;;;3.38;1.50;;;;;;;18.65;36.90;98961.28;5060531;28;20119;-92
2022/09/22 11:32:05;;;;;;;2.60;1.60;;;;;;;18.67;36.26;98940.53;5054424;28;20059;-93
2022/09/22 11:34:50;;;;;;;4.45;1.65;;;;;;;18.76;36.59;98966.06;5055282;28;20055;-92
2022/09/22 11:37:33;;;;;;;2.03;1.60;;;;;;;18.79;36.46;98968.59;5057300;28;20037;-93
2022/09/22 11:40:16;;;;;;;4.05;1.58;;;;;;;18.92;36.92;98968.78;5050885;28;20402;-91
2022/09/22 11:42:54;;;;;;;2.17;1.60;;;;;;;18.55;37.20;98949.31;5056758;28;20041;-93
2022/09/22 11:45:38;;;;;;;2.35;1.50;;;;;;;18.81;36.99;98955.06;5062142;28;20639;-94
2022/09/22 11:48:15;;;;;;;2.88;1.60;;;;;;;18.81;37.96;98934.38;5062163;28;20477;-93
2022/09/22 11:51:02;;;;;;;2.47;1.40;;;;;;;18.86;36.36;98955.66;5061171;28;20512;-91
2022/09/22 11:54:18;;;;;;;1.80;1.50;;;;;;;18.59;36.52;98934.72;5061757;28;20628;-94
2022/09/22 11:56:48;;;;;;;1.40;1.30;;;;;;;18.82;35.58;98932.53;5015332;28;20153;-92
2022/09/22 11:59:25;;;;;;;3.97;1.70;;;;;;;18.85;35.44;98944.00;5023070;28;20050;-93
2022/09/22 12:01:56;;;;;;;2.05;1.40;;;;;;;18.87;36.26;98922.38;5016502;28;20063;-92
2022/09/22 12:04:33;;;;;;;1.90;1.58;;;;;;;18.74;35.68;98911.41;5011676;28;20038;-92
2022/09/22 12:07:02;;;;;;;1.98;1.55;;;;;;;18.80;35.03;98915.59;5016482;28;20038;-93
2022/09/22 12:09:36;;;;;;;1.50;1.40;;;;;;;18.98;36.49;98927.13;5024933;28;20050;-93